createdAt,value
2022-12-03T00:02:16.147Z,33.63
2022-12-03T00:04:43.252Z,35.75
2022-12-03T00:07:10.278Z,14.05
2022-12-03T00:09:37.263Z,24.00
2022-12-03T00:12:04.304Z,41.05
2022-12-03T00:14:31.358Z,41.72
2022-12-03T00:16:58.300Z,9.77
2022-12-03T00:19:25.307Z,31.98
2022-12-03T00:21:52.262Z,32.38
2022-12-03T00:24:19.288Z,29.15
2022-12-03T00:26:46.282Z,14.15
2022-12-03T00:29:13.352Z,25.77
2022-12-03T00:31:42.216Z,29.98
2022-12-03T00:34:09.362Z,33.90
2022-12-03T00:36:36.383Z,34.97
2022-12-03T00:39:03.317Z,32.50
2022-12-03T00:41:30.323Z,36.65
2022-12-03T00:43:58.043Z,31.70
2022-12-03T00:46:25.557Z,33.08
2022-12-03T00:48:53.208Z,35.15
2022-12-03T00:51:20.159Z,23.20
2022-12-03T00:53:47.181Z,14.65
2022-12-03T00:56:14.149Z,33.60
2022-12-03T00:58:41.074Z,30.27
2022-12-03T01:01:08.030Z,37.03
2022-12-03T01:03:35.216Z,32.10
2022-12-03T01:06:02.234Z,39.80
2022-12-03T01:08:29.400Z,26.98
2022-12-03T01:10:56.328Z,17.00
2022-12-03T01:13:23.342Z,20.95
2022-12-03T01:15:50.562Z,54.10
2022-12-03T01:18:36.156Z,40.92
2022-12-03T01:21:03.085Z,53.95
2022-12-03T01:23:30.063Z,41.50
2022-12-03T01:25:57.064Z,47.20
2022-12-03T01:28:23.995Z,44.08
2022-12-03T01:31:09.645Z,45.65
2022-12-03T01:33:38.069Z,38.58
2022-12-03T01:36:05.176Z,12.32
2022-12-03T01:38:32.070Z,32.05
2022-12-03T01:40:59.229Z,22.83
2022-12-03T01:43:26.401Z,41.83
2022-12-03T01:45:53.455Z,38.20
2022-12-03T01:48:20.555Z,37.35
2022-12-03T01:50:47.617Z,10.02
2022-12-03T01:53:19.016Z,38.53
2022-12-03T01:55:48.878Z,26.00
2022-12-03T01:58:19.739Z,13.05
2022-12-03T02:00:46.665Z,36.42
2022-12-03T02:03:21.271Z,27.35
2022-12-03T02:05:48.268Z,35.63
2022-12-03T02:08:28.588Z,42.75
2022-12-03T02:10:57.570Z,31.30
2022-12-03T02:13:24.671Z,45.17
2022-12-03T02:15:51.737Z,36.90
2022-12-03T02:18:19.133Z,28.15
2022-12-03T02:21:12.796Z,31.42
2022-12-03T02:23:53.502Z,34.17
2022-12-03T02:26:20.847Z,41.33
2022-12-03T02:28:47.900Z,33.55
2022-12-03T02:31:15.345Z,38.13
2022-12-03T02:33:42.460Z,38.67
2022-12-03T02:36:10.169Z,33.05
2022-12-03T02:38:37.413Z,29.88
2022-12-03T02:41:09.485Z,23.70
2022-12-03T02:43:36.906Z,57.83
2022-12-03T02:46:05.067Z,37.92
2022-12-03T02:48:35.614Z,58.72
2022-12-03T02:51:09.016Z,42.22
2022-12-03T02:53:42.724Z,37.15
2022-12-03T02:56:13.560Z,34.33
2022-12-03T02:58:43.119Z,31.52
2022-12-03T03:01:11.215Z,26.10
2022-12-03T03:03:39.738Z,21.42
2022-12-03T03:06:08.649Z,27.02
2022-12-03T03:08:37.980Z,36.22
2022-12-03T03:11:05.227Z,12.88
2022-12-03T03:13:35.526Z,37.35
2022-12-03T03:16:05.410Z,26.02
2022-12-03T03:18:33.324Z,22.75
2022-12-03T03:21:00.646Z,35.67
2022-12-03T03:23:28.245Z,36.50
2022-12-03T03:26:07.713Z,28.88
2022-12-03T03:28:39.857Z,35.95
2022-12-03T03:31:09.699Z,36.30
2022-12-03T03:36:06.410Z,18.08
2022-12-03T03:38:34.360Z,28.20
2022-12-03T03:41:03.990Z,38.22
2022-12-03T03:43:33.429Z,36.28
2022-12-03T03:46:03.934Z,19.45
2022-12-03T03:48:31.510Z,19.02
2022-12-03T03:50:58.466Z,43.05
2022-12-03T03:53:25.511Z,32.20
2022-12-03T03:55:53.038Z,23.48
2022-12-03T03:58:19.985Z,29.10
2022-12-03T04:00:47.644Z,26.02
2022-12-03T04:03:14.678Z,22.67
2022-12-03T04:05:41.696Z,19.55
2022-12-03T04:08:08.827Z,27.20
2022-12-03T04:10:54.499Z,33.25
2022-12-03T04:13:21.638Z,29.63
2022-12-03T04:15:48.681Z,25.25
2022-12-03T04:18:34.210Z,29.70
2022-12-03T04:21:19.882Z,22.75
2022-12-03T04:23:46.875Z,34.13
2022-12-03T04:26:32.685Z,23.70
2022-12-03T04:28:59.682Z,30.25
2022-12-03T04:31:45.264Z,23.42
2022-12-03T04:34:31.000Z,35.22
2022-12-03T04:36:58.019Z,21.70
2022-12-03T04:39:25.108Z,27.90
2022-12-03T04:41:52.187Z,20.00
2022-12-03T04:44:36.435Z,26.83
2022-12-03T04:47:16.957Z,42.08
2022-12-03T04:49:46.670Z,22.80
2022-12-03T04:52:15.141Z,26.92
2022-12-03T04:54:42.493Z,14.18
2022-12-03T04:57:10.634Z,15.23
2022-12-03T04:59:38.620Z,29.45
2022-12-03T05:02:06.603Z,35.42
2022-12-03T05:04:33.992Z,27.80
2022-12-03T05:07:01.085Z,32.35
2022-12-03T05:09:28.052Z,30.65
2022-12-03T05:11:55.066Z,31.48
2022-12-03T05:14:22.059Z,37.22
2022-12-03T05:16:49.051Z,32.00
2022-12-03T05:19:16.157Z,36.78
2022-12-03T05:21:43.122Z,25.70
2022-12-03T05:24:10.040Z,19.13
2022-12-03T05:26:37.021Z,23.85
2022-12-03T05:29:04.222Z,33.45
2022-12-03T05:31:31.311Z,26.75
2022-12-03T05:33:58.382Z,23.00
2022-12-03T05:36:25.748Z,30.20
2022-12-03T05:38:52.784Z,25.65
2022-12-03T05:41:38.183Z,48.38
2022-12-03T05:44:05.232Z,26.88
2022-12-03T05:46:33.110Z,29.98
2022-12-03T05:49:00.187Z,35.10
2022-12-03T05:51:27.397Z,42.30
2022-12-03T05:53:54.312Z,34.70
2022-12-03T05:56:21.271Z,21.80
2022-12-03T05:58:48.391Z,39.20
2022-12-03T06:01:15.336Z,35.40
2022-12-03T06:03:42.587Z,33.88
2022-12-03T06:06:09.719Z,26.90
2022-12-03T06:08:36.702Z,27.85
2022-12-03T06:11:03.756Z,12.77
2022-12-03T06:13:30.818Z,23.05
2022-12-03T06:15:57.887Z,32.05
2022-12-03T06:18:24.950Z,20.65
2022-12-03T06:20:51.854Z,27.90
2022-12-03T06:23:18.824Z,25.77
2022-12-03T06:25:45.870Z,41.67
2022-12-03T06:28:12.973Z,16.38
2022-12-03T06:30:40.076Z,29.17
2022-12-03T06:33:07.086Z,36.03
2022-12-03T06:35:33.995Z,31.60
2022-12-03T06:38:01.069Z,25.60
2022-12-03T06:40:28.073Z,23.95
2022-12-03T06:42:54.999Z,38.15
2022-12-03T06:45:22.040Z,41.63
2022-12-03T06:47:49.036Z,31.45
2022-12-03T06:50:16.476Z,40.63
2022-12-03T06:52:43.522Z,40.20
2022-12-03T06:55:10.720Z,36.92
2022-12-03T06:57:37.756Z,26.58
2022-12-03T07:00:06.652Z,36.63
2022-12-03T07:02:33.882Z,42.60
2022-12-03T07:05:00.893Z,35.63
2022-12-03T07:07:27.927Z,30.02
2022-12-03T07:09:54.951Z,23.67
2022-12-03T07:12:22.302Z,33.50
2022-12-03T07:14:49.342Z,34.10
2022-12-03T07:17:16.271Z,30.95
2022-12-03T07:19:43.310Z,39.13
2022-12-03T07:22:10.280Z,36.58
2022-12-03T07:24:37.376Z,33.42
2022-12-03T07:27:04.458Z,27.50
2022-12-03T07:29:31.430Z,39.13
2022-12-03T07:31:58.423Z,47.70
2022-12-03T07:34:25.431Z,24.30
2022-12-03T07:36:52.545Z,46.72
2022-12-03T07:39:19.481Z,27.77
2022-12-03T07:41:46.439Z,23.73
2022-12-03T07:44:14.783Z,25.88
2022-12-03T07:46:42.811Z,47.75
2022-12-03T07:49:10.252Z,34.75
2022-12-03T07:51:37.350Z,42.03
2022-12-03T08:16:22.380Z,39.53
2022-12-03T08:18:51.012Z,38.05
2022-12-03T08:21:20.223Z,40.38
2022-12-03T08:23:47.614Z,37.45
2022-12-03T08:26:23.577Z,39.45
2022-12-03T08:28:52.421Z,45.72
2022-12-03T08:31:32.343Z,41.10
2022-12-03T08:34:17.732Z,44.88
2022-12-03T08:36:45.581Z,47.40
2022-12-03T08:39:24.826Z,38.70
2022-12-03T08:42:17.366Z,42.37
2022-12-03T08:44:45.404Z,37.08
2022-12-03T08:47:22.805Z,32.28
2022-12-03T08:50:07.313Z,41.13
2022-12-03T08:52:35.195Z,45.80
2022-12-03T08:55:35.855Z,29.10
2022-12-03T08:58:39.625Z,36.75
2022-12-03T09:01:12.931Z,49.90
2022-12-03T09:03:49.562Z,44.92
2022-12-03T09:11:59.174Z,33.03
2022-12-03T09:14:26.415Z,31.08
2022-12-03T09:16:56.528Z,34.03
2022-12-03T09:19:26.008Z,35.35
2022-12-03T09:21:54.042Z,35.85
2022-12-03T09:24:21.097Z,30.10
2022-12-03T09:26:48.221Z,35.33
2022-12-03T09:29:15.447Z,26.67
2022-12-03T09:31:42.631Z,41.95
2022-12-03T09:34:11.408Z,36.17
2022-12-03T09:36:38.496Z,39.10
2022-12-03T09:39:05.711Z,39.17
2022-12-03T09:41:32.787Z,34.55
2022-12-03T09:44:04.435Z,34.88
2022-12-03T09:46:34.275Z,42.00
2022-12-03T09:49:02.322Z,41.97
2022-12-03T09:51:35.904Z,34.33
2022-12-03T09:54:05.360Z,24.70
2022-12-03T09:56:38.202Z,29.70
2022-12-03T09:59:15.439Z,42.97
2022-12-03T10:01:42.774Z,35.60
2022-12-03T10:04:10.369Z,32.65
2022-12-03T10:06:44.110Z,41.30
2022-12-03T10:09:17.437Z,24.63
2022-12-03T10:11:44.912Z,30.20
2022-12-03T10:14:14.464Z,29.33
2022-12-03T10:16:42.241Z,47.58
2022-12-03T10:19:17.539Z,44.15
2022-12-03T10:21:44.668Z,40.45
2022-12-03T10:24:21.424Z,25.40
2022-12-03T10:26:51.084Z,33.20
2022-12-03T10:29:21.105Z,45.35
2022-12-03T10:31:58.086Z,38.17
2022-12-03T10:34:34.089Z,41.88
2022-12-03T10:37:12.122Z,37.22
2022-12-03T10:39:59.986Z,33.92
2022-12-03T10:42:29.750Z,37.03
2022-12-03T10:45:18.118Z,43.58
2022-12-03T10:48:13.334Z,44.45
2022-12-03T10:50:54.031Z,41.92
2022-12-03T10:53:26.089Z,48.17
2022-12-03T10:55:58.999Z,43.90
2022-12-03T10:58:32.004Z,49.58
2022-12-03T11:01:01.618Z,35.35
2022-12-03T11:03:31.036Z,21.17
2022-12-03T11:06:01.327Z,51.67
2022-12-03T11:08:33.211Z,39.72
2022-12-03T11:11:01.873Z,43.10
2022-12-03T11:13:35.193Z,20.00
2022-12-03T11:16:04.985Z,37.42
2022-12-03T11:18:38.721Z,41.20
2022-12-03T11:21:14.116Z,53.33
2022-12-03T11:23:44.788Z,35.53
2022-12-03T11:26:19.622Z,39.95
2022-12-03T11:28:47.215Z,45.63
2022-12-03T11:31:35.790Z,35.92
2022-12-03T11:34:18.141Z,36.20
2022-12-03T11:37:10.058Z,34.42
2022-12-03T11:39:53.080Z,38.97
2022-12-03T11:42:26.037Z,34.47
2022-12-03T11:45:11.162Z,48.67
2022-12-03T11:48:12.312Z,39.92
2022-12-03T11:50:43.578Z,52.95
2022-12-03T11:53:31.578Z,47.20
2022-12-03T11:56:11.010Z,51.20
2022-12-03T11:58:42.449Z,33.58
2022-12-03T12:01:10.114Z,48.03
2022-12-03T12:03:46.526Z,38.72
2022-12-03T12:06:16.227Z,50.85
2022-12-03T12:08:52.370Z,42.33
2022-12-03T12:11:30.594Z,30.23
2022-12-03T12:14:01.511Z,41.22
2022-12-03T12:17:03.364Z,31.13
2022-12-03T12:19:42.275Z,34.05
2022-12-03T12:22:20.335Z,24.13
2022-12-03T12:24:51.797Z,13.35
2022-12-03T12:27:32.710Z,14.88
2022-12-03T12:30:02.891Z,14.77
2022-12-03T12:32:34.792Z,19.80
2022-12-03T12:35:19.856Z,13.40
2022-12-03T12:37:59.671Z,13.57
2022-12-03T12:40:32.374Z,8.43
2022-12-03T12:43:12.061Z,11.70
2022-12-03T12:45:43.614Z,15.40
2022-12-03T12:48:13.170Z,12.82
2022-12-03T12:50:42.524Z,11.55
2022-12-03T12:53:26.252Z,17.17
2022-12-03T12:55:57.844Z,6.90
2022-12-03T12:58:26.250Z,15.88
2022-12-03T13:00:57.360Z,12.23
2022-12-03T13:03:28.957Z,7.18
2022-12-03T13:05:57.836Z,12.63
2022-12-03T13:08:39.724Z,7.32
2022-12-03T13:11:21.092Z,19.00
2022-12-03T13:13:48.261Z,9.68
2022-12-03T13:16:33.956Z,18.13
2022-12-03T13:19:02.178Z,14.98
2022-12-03T13:21:39.721Z,11.82
2022-12-03T13:24:34.644Z,14.15
2022-12-03T13:27:13.800Z,7.80
2022-12-03T13:29:40.942Z,19.38
2022-12-03T13:32:21.020Z,17.67
2022-12-03T13:37:25.452Z,16.30
2022-12-03T13:39:56.128Z,14.38
2022-12-03T13:42:39.525Z,9.07
2022-12-03T13:45:15.759Z,8.40
2022-12-03T13:47:48.806Z,11.77
2022-12-03T13:50:34.334Z,22.90
2022-12-03T13:53:24.576Z,9.55
2022-12-03T13:58:27.914Z,13.70
2022-12-03T14:00:55.011Z,14.38
2022-12-03T14:03:23.459Z,21.02
2022-12-03T14:05:50.516Z,10.73
2022-12-03T14:08:17.691Z,18.17
2022-12-03T14:10:44.870Z,21.13
2022-12-03T14:13:12.001Z,6.20
2022-12-03T14:15:38.985Z,22.17
2022-12-03T14:18:06.206Z,19.25
2022-12-03T14:20:35.148Z,13.20
2022-12-03T14:23:02.291Z,16.80
2022-12-03T14:25:29.378Z,21.92
2022-12-03T14:27:56.573Z,24.48
2022-12-03T14:30:23.546Z,16.98
2022-12-03T14:32:50.540Z,13.57
2022-12-03T14:35:17.465Z,17.33
2022-12-03T14:37:45.183Z,16.40
2022-12-03T14:40:16.561Z,22.33
2022-12-03T14:42:46.677Z,15.35
2022-12-03T14:45:13.791Z,12.30
2022-12-03T14:47:40.940Z,12.32
2022-12-03T14:50:08.822Z,18.63
2022-12-03T14:52:36.712Z,19.77
2022-12-03T14:55:04.086Z,18.52
2022-12-03T14:57:31.086Z,18.88
2022-12-03T14:59:58.147Z,9.30
2022-12-03T15:02:25.210Z,19.15
2022-12-03T15:04:52.354Z,8.75
2022-12-03T15:07:19.374Z,22.40
2022-12-03T15:09:46.551Z,31.55
2022-12-03T15:12:13.707Z,26.10
2022-12-03T15:14:41.471Z,21.17
2022-12-03T15:17:08.574Z,20.83
2022-12-03T15:19:35.627Z,16.33
2022-12-03T15:22:02.633Z,22.73
2022-12-03T15:24:29.658Z,24.35
2022-12-03T15:26:56.923Z,26.20
2022-12-03T15:29:24.052Z,16.80
2022-12-03T15:31:51.274Z,10.13
2022-12-03T15:34:22.570Z,17.42
2022-12-03T15:36:50.461Z,16.58
2022-12-03T15:39:17.496Z,22.92
2022-12-03T15:41:44.548Z,22.77
2022-12-03T15:44:11.614Z,26.77
2022-12-03T15:46:38.607Z,20.08
2022-12-03T15:49:05.680Z,24.80
2022-12-03T15:51:33.321Z,20.33
2022-12-03T15:54:00.417Z,13.65
2022-12-03T15:56:27.410Z,16.10
2022-12-03T15:58:54.411Z,17.20
2022-12-03T16:01:21.787Z,22.95
2022-12-03T16:03:48.833Z,15.20
2022-12-03T16:06:18.270Z,21.95
2022-12-03T16:08:45.364Z,9.65
2022-12-03T16:11:12.418Z,16.48
2022-12-03T16:13:39.486Z,7.97
2022-12-03T16:16:06.879Z,13.40
2022-12-03T16:18:33.971Z,14.90
2022-12-03T16:21:01.125Z,18.70
2022-12-03T16:23:28.250Z,14.85
2022-12-03T16:25:55.384Z,13.40
2022-12-03T16:28:22.500Z,15.57
2022-12-03T16:30:49.650Z,16.73
2022-12-03T16:33:16.872Z,15.70
2022-12-03T16:35:44.756Z,16.77
2022-12-03T16:38:11.787Z,10.00
2022-12-03T16:40:38.850Z,12.40
2022-12-03T16:43:05.883Z,13.20
2022-12-03T16:46:01.902Z,20.83
2022-12-03T16:48:30.316Z,18.75
2022-12-03T16:50:57.558Z,12.52
2022-12-03T16:53:24.758Z,15.15
2022-12-03T16:55:51.960Z,11.02
2022-12-03T16:58:21.486Z,16.40
2022-12-03T17:00:49.618Z,7.72
2022-12-03T17:03:18.160Z,8.32
2022-12-03T17:05:46.230Z,14.18
2022-12-03T17:08:14.393Z,9.75
2022-12-03T17:10:41.924Z,16.88
2022-12-03T17:13:10.315Z,15.65
2022-12-03T17:15:38.396Z,8.73
2022-12-03T17:18:06.263Z,14.10
2022-12-03T17:20:33.879Z,10.00
2022-12-03T17:23:01.489Z,9.77
2022-12-03T17:25:28.795Z,14.98
2022-12-03T17:27:56.077Z,12.32
2022-12-03T17:30:23.083Z,11.10
2022-12-03T17:32:50.581Z,13.70
2022-12-03T17:35:18.024Z,11.23
2022-12-03T17:37:45.506Z,7.03
2022-12-03T17:40:14.134Z,8.77
2022-12-03T17:42:41.289Z,10.63
2022-12-03T17:45:09.133Z,13.07
2022-12-03T17:47:36.165Z,6.78
2022-12-03T17:50:03.416Z,8.77
2022-12-03T17:52:30.528Z,16.15
2022-12-03T17:55:18.050Z,14.48
2022-12-03T17:57:44.883Z,9.68
2022-12-03T18:00:12.664Z,8.30
2022-12-03T18:02:40.705Z,16.77
2022-12-03T18:05:08.147Z,10.18
2022-12-03T18:07:35.364Z,10.75
2022-12-03T18:10:02.741Z,12.65
2022-12-03T18:12:30.908Z,8.93
2022-12-03T18:14:58.064Z,8.40
2022-12-03T18:17:25.328Z,16.52
2022-12-03T18:19:52.837Z,10.95
2022-12-03T18:22:20.746Z,19.73
2022-12-03T18:24:51.576Z,21.02
2022-12-03T18:27:21.323Z,24.20
2022-12-03T18:29:49.065Z,16.77
2022-12-03T18:32:28.294Z,14.68
2022-12-03T18:34:57.927Z,15.35
2022-12-03T18:37:29.346Z,17.88
2022-12-03T18:39:58.456Z,11.40
2022-12-03T18:42:26.067Z,6.27
2022-12-03T18:44:55.681Z,16.52
2022-12-03T18:47:25.655Z,22.05
2022-12-03T18:52:23.196Z,14.45
2022-12-03T18:54:50.391Z,8.03
2022-12-03T18:57:18.032Z,13.63
2022-12-03T18:59:45.273Z,12.30
2022-12-03T19:02:38.658Z,15.43
2022-12-03T19:05:04.471Z,13.07
2022-12-03T19:07:32.062Z,12.65
2022-12-03T19:09:59.251Z,11.07
2022-12-03T19:12:26.638Z,8.32
2022-12-03T19:14:53.844Z,15.75
2022-12-03T19:17:21.869Z,15.55
2022-12-03T19:19:51.119Z,12.40
2022-12-03T19:22:22.345Z,22.37
2022-12-03T19:24:50.542Z,18.02
2022-12-03T19:27:17.665Z,12.40
2022-12-03T19:29:48.363Z,18.55
2022-12-03T19:32:15.950Z,7.10
2022-12-03T19:34:43.138Z,19.80
2022-12-03T19:37:10.372Z,8.88
2022-12-03T19:39:37.586Z,19.17
2022-12-03T19:42:04.809Z,15.32
2022-12-03T19:44:32.016Z,17.85
2022-12-03T19:46:59.006Z,18.17
2022-12-03T19:49:27.372Z,19.08
2022-12-03T19:51:54.636Z,19.60
2022-12-03T19:54:21.724Z,9.45
2022-12-03T19:56:49.167Z,17.35
2022-12-03T19:59:19.156Z,15.25
2022-12-03T20:01:46.450Z,12.75
2022-12-03T20:04:14.058Z,18.08
2022-12-03T20:06:41.581Z,19.52
2022-12-03T20:09:12.205Z,24.15
2022-12-03T20:11:41.109Z,4.53
2022-12-03T20:14:11.400Z,14.68
2022-12-03T20:16:38.518Z,14.55
2022-12-03T20:19:07.968Z,16.73
2022-12-03T20:21:36.718Z,15.55
2022-12-03T20:24:04.861Z,17.13
2022-12-03T20:26:32.514Z,17.23
2022-12-03T20:29:00.178Z,15.35
2022-12-03T20:31:30.468Z,9.52
2022-12-03T20:34:00.799Z,17.17
2022-12-03T20:36:29.566Z,9.25
2022-12-03T20:38:58.977Z,16.23
2022-12-03T20:41:26.394Z,17.02
2022-12-03T20:43:53.909Z,15.65
2022-12-03T20:46:23.786Z,13.23
2022-12-03T20:48:50.769Z,19.67
2022-12-03T20:51:19.962Z,18.50
2022-12-03T20:53:48.022Z,15.67
2022-12-03T20:56:24.125Z,11.18
2022-12-03T20:58:51.271Z,20.08
2022-12-03T21:01:24.229Z,20.55
2022-12-03T21:03:53.846Z,15.25
2022-12-03T21:06:22.017Z,15.30
2022-12-03T21:08:49.157Z,15.02
2022-12-03T21:11:19.366Z,9.82
2022-12-03T21:13:47.364Z,3.20
2022-12-03T21:16:17.622Z,13.52
2022-12-03T21:18:44.958Z,21.50
2022-12-03T21:21:13.420Z,11.93
2022-12-03T21:23:40.813Z,16.85
2022-12-03T21:26:10.901Z,20.83
2022-12-03T21:31:08.602Z,18.33
2022-12-03T21:36:03.411Z,16.67
2022-12-03T21:38:32.147Z,13.57
2022-12-03T21:40:59.468Z,17.42
2022-12-03T21:43:27.177Z,21.17
2022-12-03T21:45:54.363Z,17.20
2022-12-03T21:48:22.081Z,9.27
2022-12-03T21:51:00.408Z,21.67
2022-12-03T21:53:28.602Z,23.60
2022-12-03T21:55:55.733Z,19.70
2022-12-03T21:58:22.772Z,19.80
2022-12-03T22:00:49.873Z,19.38
2022-12-03T22:03:17.096Z,15.15
2022-12-03T22:05:44.285Z,18.45
2022-12-03T22:08:11.310Z,19.95
2022-12-03T22:10:38.396Z,14.27
2022-12-03T22:13:05.415Z,9.88
2022-12-03T22:15:32.595Z,15.32
2022-12-03T22:17:59.660Z,20.98
2022-12-03T22:20:27.522Z,18.98
2022-12-03T22:22:54.557Z,17.45
2022-12-03T22:25:21.624Z,20.15
2022-12-03T22:27:48.677Z,17.75
2022-12-03T22:30:15.765Z,12.88
2022-12-03T22:32:42.763Z,11.73
2022-12-03T22:35:09.820Z,12.20
2022-12-03T22:37:36.923Z,18.25
2022-12-03T22:40:04.932Z,14.95
2022-12-03T22:42:32.013Z,19.23
2022-12-03T22:44:58.978Z,21.00
2022-12-03T22:47:25.955Z,9.35
2022-12-03T22:49:53.016Z,15.68
2022-12-03T22:52:20.164Z,11.98
2022-12-03T22:54:47.161Z,18.48
2022-12-03T22:57:14.194Z,21.52
2022-12-03T22:59:41.122Z,10.63
2022-12-03T23:02:08.216Z,10.60
2022-12-03T23:04:35.202Z,12.65
2022-12-03T23:07:02.245Z,22.25
2022-12-03T23:09:29.277Z,21.75
2022-12-03T23:11:56.212Z,13.85
2022-12-03T23:14:23.146Z,15.27
2022-12-03T23:16:50.071Z,24.67
2022-12-03T23:19:19.994Z,12.65
2022-12-03T23:21:47.025Z,13.65
2022-12-03T23:24:14.014Z,17.73
2022-12-03T23:26:41.353Z,17.85
2022-12-03T23:29:08.689Z,19.42
2022-12-03T23:31:36.248Z,18.38
2022-12-03T23:34:04.285Z,20.52
2022-12-03T23:36:32.882Z,18.42
2022-12-03T23:39:00.014Z,18.30
2022-12-03T23:41:27.180Z,20.15
2022-12-03T23:43:54.373Z,16.73
2022-12-03T23:46:24.785Z,16.90
2022-12-03T23:48:52.540Z,18.67
2022-12-03T23:51:22.362Z,10.98
2022-12-03T23:53:49.549Z,23.88
2022-12-03T23:56:21.994Z,18.73
2022-12-03T23:58:49.028Z,18.88
